Time;durP1;ratioP1;P1;durP2;ratioP2;P2;SDS_P1;SDS_P2;PMS_P1;PMS_P2;Temp;Humidity;BMP_temperature;BMP_pressure;BME280_temperature;BME280_humidity;BME280_pressure;Samples;Min_cycle;Max_cycle;Signal;HPM_P1;HPM_P2
2023/07/05 00:10:32;;;;;;;3.05;2.60;;;;;;;20.28;68.28;96665.13;6001947;23;20058;-83
2023/07/05 00:12:59;;;;;;;3.72;1.90;;;;;;;20.48;67.94;96694.56;6080749;23;20023;-81
2023/07/05 00:15:26;;;;;;;1.88;1.73;;;;;;;20.15;68.26;96650.25;6016891;23;20023;-83
2023/07/05 00:17:56;;;;;;;4.03;1.88;;;;;;;20.27;69.13;96663.59;5970473;23;20042;-81
2023/07/05 00:20:22;;;;;;;1.55;1.45;;;;;;;20.33;68.27;96664.94;6061727;23;20233;-83
2023/07/05 00:25:18;;;;;;;4.00;2.10;;;;;;;20.30;68.49;96660.28;6002221;23;20027;-81
2023/07/05 00:27:44;;;;;;;1.77;1.65;;;;;;;20.18;68.73;96633.75;6042981;23;20296;-81
2023/07/05 00:30:11;;;;;;;1.85;1.70;;;;;;;20.03;68.84;96624.50;6042705;23;20045;-84
2023/07/05 00:32:37;;;;;;;2.30;1.63;;;;;;;20.27;68.32;96639.00;5934507;23;20019;-83
2023/07/05 00:35:11;;;;;;;1.95;1.63;;;;;;;20.33;68.44;96635.09;5958402;23;20309;-84
2023/07/05 00:37:37;;;;;;;1.95;1.50;;;;;;;20.39;68.63;96645.16;5915395;23;20144;-81
2023/07/05 00:40:03;;;;;;;2.50;1.50;;;;;;;20.47;68.58;96640.88;5898560;23;20260;-81
2023/07/05 00:42:28;;;;;;;2.22;1.58;;;;;;;20.32;68.77;96628.22;5942819;23;20346;-83
2023/07/05 00:45:09;;;;;;;2.72;1.83;;;;;;;20.48;68.57;96637.16;5942692;23;20246;-82
2023/07/05 00:47:35;;;;;;;2.17;1.90;;;;;;;20.43;69.46;96634.69;5947296;23;20196;-85
2023/07/05 00:50:06;;;;;;;2.38;1.80;;;;;;;20.56;68.76;96638.19;5953342;23;20362;-82
2023/07/05 00:52:33;;;;;;;1.88;1.77;;;;;;;20.43;69.03;96626.00;5917650;23;20193;-82
2023/07/05 00:54:59;;;;;;;1.70;1.60;;;;;;;20.55;68.42;96641.94;5922986;23;20355;-82
2023/07/05 00:57:27;;;;;;;2.55;1.90;;;;;;;20.52;68.80;96638.06;5921696;23;20212;-81
2023/07/05 01:00:06;;;;;;;1.67;1.58;;;;;;;20.60;68.92;96625.88;5945718;23;20342;-81
2023/07/05 01:02:31;;;;;;;2.40;1.88;;;;;;;20.51;68.70;96633.88;5953941;23;20225;-82
2023/07/05 01:04:57;;;;;;;2.92;1.90;;;;;;;20.48;68.91;96633.75;6012388;23;20200;-82
2023/07/05 01:07:23;;;;;;;2.75;1.90;;;;;;;20.37;69.49;96628.03;6035381;23;20144;-81
2023/07/05 01:09:48;;;;;;;2.45;2.10;;;;;;;20.31;69.78;96638.03;6036814;23;20130;-82
2023/07/05 01:12:32;;;;;;;2.00;1.83;;;;;;;20.52;69.83;96637.28;6037725;23;20169;-81
2023/07/05 01:15:16;;;;;;;5.03;2.42;;;;;;;20.58;69.29;96636.78;5904641;23;20162;-80
2023/07/05 01:18:06;;;;;;;3.10;2.47;;;;;;;20.48;70.13;96631.09;5864752;23;20103;-82
2023/07/05 01:20:53;;;;;;;3.20;2.30;;;;;;;20.58;69.86;96625.44;6031924;23;20379;-81
2023/07/05 01:23:40;;;;;;;2.63;2.13;;;;;;;20.62;69.25;96623.72;6041821;23;20004;-80
2023/07/05 01:26:42;;;;;;;3.13;2.40;;;;;;;20.57;69.36;96629.94;6035519;23;20031;-81
2023/07/05 01:29:40;;;;;;;3.47;2.13;;;;;;;20.42;69.39;96627.09;5908837;23;20012;-80
2023/07/05 01:32:12;;;;;;;2.85;2.10;;;;;;;20.52;70.11;96616.13;5916495;23;20007;-80
2023/07/05 01:34:44;;;;;;;2.95;1.95;;;;;;;20.54;70.39;96635.84;6041903;23;20056;-80
2023/07/05 01:37:23;;;;;;;2.10;1.90;;;;;;;20.59;70.08;96630.38;6016988;23;20027;-81
2023/07/05 01:39:48;;;;;;;3.40;1.85;;;;;;;20.50;69.84;96631.56;5916771;23;20015;-81
2023/07/05 01:42:14;;;;;;;1.92;1.77;;;;;;;20.48;69.67;96626.59;6008179;23;20008;-81
2023/07/05 01:44:40;;;;;;;4.22;1.70;;;;;;;20.60;69.56;96623.22;6005407;23;20007;-80
2023/07/05 01:47:20;;;;;;;2.65;2.03;;;;;;;20.60;69.34;96628.53;6040779;23;20015;-80
2023/07/05 01:50:10;;;;;;;2.42;1.98;;;;;;;20.69;69.24;96623.97;6041136;23;20007;-80
2023/07/05 01:52:45;;;;;;;2.67;1.73;;;;;;;20.67;69.86;96628.81;6029128;23;20012;-81
2023/07/05 01:55:13;;;;;;;2.28;1.98;;;;;;;20.66;69.08;96621.19;5916020;23;20018;-79
2023/07/05 01:57:44;;;;;;;3.17;2.00;;;;;;;20.69;69.40;96621.31;6030598;23;20062;-80
2023/07/05 02:00:15;;;;;;;2.17;1.60;;;;;;;20.71;69.40;96624.41;6038866;23;20019;-79
2023/07/05 02:02:45;;;;;;;1.90;1.63;;;;;;;20.66;69.86;96629.88;6007109;23;20034;-80
2023/07/05 02:05:11;;;;;;;2.15;1.95;;;;;;;20.64;69.23;96626.78;6005730;23;20008;-79
2023/07/05 02:07:37;;;;;;;2.22;2.03;;;;;;;20.51;69.57;96618.00;5960763;23;20008;-81
2023/07/05 02:10:03;;;;;;;2.83;2.17;;;;;;;20.63;69.25;96625.25;6016229;23;20004;-79
2023/07/05 02:12:29;;;;;;;1.70;1.60;;;;;;;20.69;69.36;96618.66;6005306;23;20099;-80
2023/07/05 02:14:55;;;;;;;2.45;1.70;;;;;;;20.55;69.45;96620.78;6006418;23;20031;-79
2023/07/05 02:17:21;;;;;;;2.10;1.98;;;;;;;20.69;69.17;96610.72;6005149;23;20304;-79
2023/07/05 02:19:46;;;;;;;2.20;1.73;;;;;;;20.54;69.32;96608.66;6015230;23;20011;-80
2023/07/05 02:22:12;;;;;;;2.38;1.90;;;;;;;20.54;69.45;96612.06;6015306;23;20274;-79
2023/07/05 02:24:37;;;;;;;2.85;1.83;;;;;;;20.44;69.74;96603.75;6004953;23;20835;-79
2023/07/05 02:27:03;;;;;;;2.10;1.60;;;;;;;20.46;69.51;96601.53;5981038;23;20252;-80
2023/07/05 02:29:32;;;;;;;3.50;1.80;;;;;;;20.60;69.20;96612.66;6008573;23;20451;-79
2023/07/05 02:32:00;;;;;;;2.28;1.48;;;;;;;20.80;68.25;96605.03;6015410;23;20014;-79
2023/07/05 02:34:28;;;;;;;1.80;1.70;;;;;;;20.70;68.61;96596.41;6013908;23;20011;-79
2023/07/05 02:36:53;;;;;;;2.75;1.63;;;;;;;20.42;68.79;96582.13;6029772;23;20008;-79
2023/07/05 02:39:18;;;;;;;4.32;1.70;;;;;;;20.55;68.69;96584.53;6005578;23;20468;-80
2023/07/05 02:41:44;;;;;;;2.15;1.60;;;;;;;20.49;68.47;96577.88;5981745;23;20756;-80
2023/07/05 02:44:10;;;;;;;2.85;1.83;;;;;;;20.66;68.61;96586.81;6004542;23;20004;-79
2023/07/05 02:46:36;;;;;;;2.17;1.55;;;;;;;20.66;68.23;96582.28;6005350;23;20026;-79
2023/07/05 02:49:02;;;;;;;2.10;1.67;;;;;;;20.67;68.44;96586.47;5991064;23;20008;-79
2023/07/05 02:51:27;;;;;;;4.22;2.90;;;;;;;20.57;68.71;96586.84;6014503;23;20011;-79
2023/07/05 02:53:53;;;;;;;2.17;1.60;;;;;;;20.70;68.34;96600.91;6006266;23;20334;-78
2023/07/05 02:56:19;;;;;;;1.67;1.58;;;;;;;20.75;68.00;96598.06;6004256;23;20613;-78
2023/07/05 02:58:45;;;;;;;1.95;1.67;;;;;;;20.55;68.70;96599.63;5979958;23;20090;-78
2023/07/05 03:01:10;;;;;;;1.92;1.83;;;;;;;20.59;68.47;96597.88;5990818;23;20027;-77
2023/07/05 03:03:36;;;;;;;2.42;1.85;;;;;;;20.44;68.50;96603.75;5912364;23;20012;-78
2023/07/05 03:06:02;;;;;;;3.97;2.47;;;;;;;20.49;68.68;96588.44;6014802;23;20564;-79
2023/07/05 03:08:28;;;;;;;2.15;1.70;;;;;;;20.26;68.92;96598.56;6039739;23;20755;-79
2023/07/05 03:10:58;;;;;;;2.50;1.90;;;;;;;20.36;69.28;96587.63;6014539;23;20443;-78
2023/07/05 03:13:27;;;;;;;2.55;1.48;;;;;;;20.26;68.84;96585.34;6015529;23;20011;-79
2023/07/05 03:15:53;;;;;;;2.38;1.77;;;;;;;20.36;69.11;96571.75;5957356;23;20010;-79
2023/07/05 03:18:18;;;;;;;3.40;1.80;;;;;;;20.44;68.76;96566.72;6005504;23;20089;-78
2023/07/05 03:20:47;;;;;;;2.15;1.58;;;;;;;20.52;68.58;96584.41;6005991;23;20004;-79
2023/07/05 03:23:22;;;;;;;2.10;1.48;;;;;;;20.54;68.45;96592.78;6029217;23;20028;-79
2023/07/05 03:25:57;;;;;;;1.73;1.60;;;;;;;20.61;68.65;96587.72;6015922;23;20019;-78
2023/07/05 03:28:24;;;;;;;2.22;1.63;;;;;;;20.40;68.71;96591.16;6015167;23;20039;-79
2023/07/05 03:30:59;;;;;;;2.67;1.67;;;;;;;20.62;68.66;96589.31;6038330;23;20058;-79
2023/07/05 03:33:25;;;;;;;2.22;1.83;;;;;;;20.32;68.48;96585.94;6038446;23;20007;-79
2023/07/05 03:35:54;;;;;;;2.40;1.63;;;;;;;20.42;69.02;96584.78;5918458;23;20368;-80
2023/07/05 03:38:24;;;;;;;1.98;1.77;;;;;;;20.42;68.58;96582.13;6008246;23;20093;-79
2023/07/05 03:40:59;;;;;;;3.05;1.50;;;;;;;20.50;68.44;96583.94;6017805;23;20008;-78
2023/07/05 03:43:25;;;;;;;1.92;1.60;;;;;;;20.26;68.43;96593.28;6007275;23;20113;-79
2023/07/05 03:45:51;;;;;;;2.88;1.75;;;;;;;20.33;68.83;96598.06;6040797;23;20381;-79
2023/07/05 03:48:17;;;;;;;2.13;1.92;;;;;;;20.20;69.08;96594.56;6017363;23;20004;-79
2023/07/05 03:50:43;;;;;;;1.85;1.75;;;;;;;20.18;68.59;96586.94;6009424;23;20003;-78
2023/07/05 03:53:08;;;;;;;2.58;1.58;;;;;;;20.34;68.67;96600.38;5982862;23;20545;-79
2023/07/05 03:55:34;;;;;;;1.90;1.80;;;;;;;20.14;69.45;96583.41;5958519;23;20370;-79
2023/07/05 03:58:02;;;;;;;2.45;1.70;;;;;;;20.10;69.31;96585.16;5992110;23;20094;-79
2023/07/05 04:00:28;;;;;;;2.25;1.73;;;;;;;20.19;69.13;96591.16;6008259;23;20102;-79
2023/07/05 04:02:53;;;;;;;2.00;1.80;;;;;;;19.99;69.71;96590.00;6009308;23;20452;-78
2023/07/05 04:05:19;;;;;;;2.30;1.70;;;;;;;20.20;68.72;96597.19;6018202;23;20327;-77
2023/07/05 04:07:44;;;;;;;2.88;1.73;;;;;;;20.20;68.87;96602.50;6016517;23;20676;-80
2023/07/05 04:10:10;;;;;;;2.88;2.15;;;;;;;20.24;69.37;96600.78;6017823;23;20387;-78
2023/07/05 04:12:36;;;;;;;1.42;1.33;;;;;;;20.18;69.15;96605.44;6007467;23;20059;-79
2023/07/05 04:15:02;;;;;;;2.28;1.75;;;;;;;20.21;69.02;96598.75;6007599;23;20012;-79
2023/07/05 04:17:29;;;;;;;2.40;1.80;;;;;;;20.33;68.96;96601.47;6031994;23;20372;-79
2023/07/05 04:19:55;;;;;;;2.70;1.70;;;;;;;20.33;68.99;96606.75;5983939;23;20008;-79
2023/07/05 04:22:20;;;;;;;3.22;1.83;;;;;;;20.24;69.04;96613.19;5960882;23;20035;-79
2023/07/05 04:24:46;;;;;;;3.17;1.70;;;;;;;20.21;69.28;96612.75;5984259;23;20003;-79
2023/07/05 04:27:11;;;;;;;3.10;2.00;;;;;;;20.21;68.88;96639.19;6008595;23;20780;-80
2023/07/05 04:29:37;;;;;;;2.17;1.70;;;;;;;20.12;67.45;96643.75;6037578;23;20857;-82
2023/07/05 04:32:03;;;;;;;5.25;2.00;;;;;;;19.91;68.09;96645.56;5989790;23;20035;-80
2023/07/05 04:34:29;;;;;;;3.15;2.40;;;;;;;19.96;66.17;96659.38;6023296;23;20015;-81
2023/07/05 04:36:54;;;;;;;2.42;1.98;;;;;;;19.87;65.05;96674.47;6013056;23;20015;-80
2023/07/05 04:39:19;;;;;;;2.83;2.22;;;;;;;19.73;65.68;96684.44;6023036;23;20008;-81
2023/07/05 04:41:45;;;;;;;4.30;2.58;;;;;;;19.30;65.68;96683.44;6023521;23;20008;-82
2023/07/05 04:44:10;;;;;;;4.03;2.40;;;;;;;19.11;66.53;96690.91;6037403;23;20000;-82
2023/07/05 04:46:36;;;;;;;3.95;2.88;;;;;;;19.01;66.72;96705.19;6047626;23;20012;-81
2023/07/05 04:49:02;;;;;;;3.00;2.50;;;;;;;18.93;66.27;96708.59;6037187;23;20003;-83
2023/07/05 04:51:27;;;;;;;5.53;2.80;;;;;;;18.68;64.05;96713.53;6013610;23;20094;-81
2023/07/05 04:53:53;;;;;;;4.70;2.80;;;;;;;18.61;63.74;96718.44;6012216;23;20301;-82
2023/07/05 04:56:19;;;;;;;4.68;2.50;;;;;;;18.39;65.82;96727.25;6020480;23;20809;-81
2023/07/05 04:58:45;;;;;;;5.80;3.22;;;;;;;18.39;66.54;96724.63;5999042;23;20380;-81
2023/07/05 05:01:13;;;;;;;4.03;2.88;;;;;;;18.47;66.02;96735.19;6011979;23;20004;-81
2023/07/05 05:03:38;;;;;;;3.97;3.03;;;;;;;18.26;66.59;96729.69;6012642;23;20012;-82
2023/07/05 05:06:04;;;;;;;4.03;2.60;;;;;;;18.33;66.87;96729.25;5966923;23;19999;-82
2023/07/05 05:08:30;;;;;;;3.28;2.70;;;;;;;18.39;66.75;96719.34;6012889;23;20007;-82
2023/07/05 05:10:58;;;;;;;4.57;2.70;;;;;;;18.37;67.22;96724.13;6012182;23;20089;-81
2023/07/05 05:13:24;;;;;;;4.47;3.00;;;;;;;18.30;66.16;96721.94;5962658;23;20098;-81
2023/07/05 05:15:49;;;;;;;3.83;2.65;;;;;;;18.34;67.53;96725.53;6020638;23;20007;-82
2023/07/05 05:18:16;;;;;;;4.47;3.20;;;;;;;18.39;66.53;96728.03;5997343;23;20253;-81
2023/07/05 05:20:42;;;;;;;4.03;2.70;;;;;;;18.20;67.24;96736.19;5985514;23;20003;-80
2023/07/05 05:23:07;;;;;;;3.65;2.83;;;;;;;18.32;66.44;96739.00;6018471;23;20171;-80
2023/07/05 05:25:34;;;;;;;4.03;3.00;;;;;;;18.19;66.84;96731.22;5956219;23;20000;-80
2023/07/05 05:27:59;;;;;;;3.95;2.78;;;;;;;18.30;65.14;96741.19;6005513;23;20098;-80
2023/07/05 05:30:25;;;;;;;4.50;2.85;;;;;;;18.36;65.90;96749.72;5959219;23;20653;-80
2023/07/05 05:32:50;;;;;;;4.22;2.70;;;;;;;18.34;64.76;96730.81;6006650;23;20027;-79
2023/07/05 05:35:16;;;;;;;3.55;2.45;;;;;;;18.42;65.09;96745.88;5958214;23;20822;-79
2023/07/05 05:37:42;;;;;;;4.30;2.67;;;;;;;18.40;65.52;96740.13;5982172;23;20176;-80
2023/07/05 05:40:08;;;;;;;4.53;2.67;;;;;;;18.26;64.03;96756.03;5981543;23;20196;-80
2023/07/05 05:42:34;;;;;;;4.85;2.70;;;;;;;18.19;64.81;96757.56;5955094;23;20200;-78
2023/07/05 05:44:59;;;;;;;3.35;2.50;;;;;;;18.09;65.44;96767.28;5986909;23;20309;-80
2023/07/05 05:47:24;;;;;;;4.63;2.75;;;;;;;18.17;64.09;96770.28;5955147;23;20158;-80
2023/07/05 05:49:50;;;;;;;4.75;2.67;;;;;;;18.27;63.76;96775.28;6003238;23;20236;-80
2023/07/05 05:52:15;;;;;;;3.97;2.75;;;;;;;18.19;65.61;96776.00;6013211;23;20172;-79
2023/07/05 05:54:41;;;;;;;3.65;2.97;;;;;;;18.23;64.84;96767.22;5986319;23;20184;-79
2023/07/05 05:57:07;;;;;;;5.95;3.40;;;;;;;18.21;66.37;96779.13;5987877;23;20260;-78
2023/07/05 05:59:35;;;;;;;3.65;2.47;;;;;;;18.28;63.95;96774.97;5956745;23;20279;-79
2023/07/05 06:02:01;;;;;;;4.78;3.05;;;;;;;18.25;64.57;96778.22;6003238;23;20204;-79
2023/07/05 06:04:26;;;;;;;3.78;2.63;;;;;;;18.25;63.74;96782.69;6001859;23;20335;-79
2023/07/05 06:06:55;;;;;;;4.15;2.85;;;;;;;18.32;63.49;96790.97;6009106;23;20196;-78
2023/07/05 06:09:24;;;;;;;4.10;2.95;;;;;;;18.31;64.65;96784.88;5955590;23;20330;-80
2023/07/05 06:11:50;;;;;;;5.30;3.33;;;;;;;18.31;63.90;96784.88;5985481;23;20188;-80
2023/07/05 06:14:15;;;;;;;4.53;3.10;;;;;;;18.42;61.76;96784.63;6035319;23;20292;-80
2023/07/05 06:16:40;;;;;;;5.32;3.47;;;;;;;18.34;62.47;96794.84;5977804;23;20168;-80
2023/07/05 06:19:06;;;;;;;5.22;3.30;;;;;;;18.45;61.85;96795.34;5980549;23;20315;-80
2023/07/05 06:21:31;;;;;;;6.32;3.83;;;;;;;18.45;64.66;96797.97;6012438;23;20266;-79
2023/07/05 06:23:57;;;;;;;4.63;3.55;;;;;;;18.63;60.84;96806.72;5980156;23;20247;-80
2023/07/05 06:26:23;;;;;;;4.50;2.90;;;;;;;18.65;59.28;96801.16;6006703;23;20192;-79
2023/07/05 06:28:48;;;;;;;4.78;3.17;;;;;;;18.69;58.76;96804.72;6016239;23;20265;-79
2023/07/05 06:31:16;;;;;;;5.85;3.08;;;;;;;18.75;62.08;96821.97;6002924;23;20192;-79
2023/07/05 06:33:42;;;;;;;6.57;3.75;;;;;;;18.84;58.25;96801.69;6040575;23;20307;-79
2023/07/05 06:36:08;;;;;;;5.40;3.50;;;;;;;18.92;61.12;96818.63;6014754;23;20170;-79
2023/07/05 06:38:34;;;;;;;4.55;3.50;;;;;;;18.89;61.07;96814.75;6005992;23;20173;-80
2023/07/05 06:41:00;;;;;;;4.32;3.25;;;;;;;19.11;58.89;96826.28;6006281;23;20338;-81
2023/07/05 06:43:25;;;;;;;3.60;2.97;;;;;;;19.20;60.00;96828.94;5980710;23;20192;-80
2023/07/05 06:45:53;;;;;;;4.65;3.38;;;;;;;18.86;61.00;96820.63;5957094;23;20305;-81
2023/07/05 06:48:19;;;;;;;4.60;3.70;;;;;;;18.98;59.52;96822.66;5993655;23;20232;-83
2023/07/05 06:50:50;;;;;;;4.43;3.17;;;;;;;19.01;61.24;96837.13;5983239;23;20223;-80
2023/07/05 06:53:15;;;;;;;4.97;3.60;;;;;;;18.63;59.33;96841.00;5958271;23;20320;-83
2023/07/05 06:55:41;;;;;;;5.40;3.67;;;;;;;18.72;59.01;96844.44;6007995;23;20224;-81
2023/07/05 06:58:06;;;;;;;4.88;3.30;;;;;;;18.66;58.86;96852.78;5960232;23;20171;-81
2023/07/05 07:00:32;;;;;;;4.90;3.03;;;;;;;18.62;60.03;96857.13;6019262;23;20081;-81
2023/07/05 07:02:57;;;;;;;5.80;3.15;;;;;;;18.38;59.58;96858.25;6037366;23;20266;-81
2023/07/05 07:05:22;;;;;;;6.07;3.28;;;;;;;18.33;61.41;96872.38;5959908;23;20170;-81
2023/07/05 07:07:50;;;;;;;5.28;3.15;;;;;;;18.26;62.54;96861.44;5983109;23;20259;-83
2023/07/05 07:10:19;;;;;;;5.20;3.33;;;;;;;18.40;62.81;96871.91;5990205;23;20197;-81
2023/07/05 07:12:44;;;;;;;5.18;3.38;;;;;;;18.58;60.93;96872.78;5988461;23;20465;-79
2023/07/05 07:15:09;;;;;;;4.80;3.10;;;;;;;18.66;58.58;96872.06;5993822;23;20007;-81
2023/07/05 07:17:35;;;;;;;5.32;3.38;;;;;;;18.63;57.67;96869.25;5992419;23;20413;-82
2023/07/05 07:20:01;;;;;;;5.30;3.13;;;;;;;18.78;54.56;96878.59;6027618;23;20713;-79
2023/07/05 07:22:26;;;;;;;4.45;2.78;;;;;;;18.65;54.64;96898.72;5989532;23;20000;-80
2023/07/05 07:24:51;;;;;;;3.90;2.85;;;;;;;18.61;53.21;96903.84;6024367;23;20364;-81
2023/07/05 07:27:18;;;;;;;3.72;2.53;;;;;;;18.79;58.18;96903.91;5999364;23;20008;-82
2023/07/05 07:29:43;;;;;;;5.35;2.90;;;;;;;18.94;56.92;96919.34;6023792;23;20058;-82
2023/07/05 07:32:09;;;;;;;3.60;2.75;;;;;;;19.02;55.23;96915.19;6015828;23;20694;-81
2023/07/05 07:34:34;;;;;;;4.13;2.22;;;;;;;19.21;52.34;96920.22;6025373;23;20263;-81
2023/07/05 07:37:00;;;;;;;4.32;2.67;;;;;;;19.10;55.19;96927.63;5992366;23;20008;-80
2023/07/05 07:39:25;;;;;;;3.72;2.38;;;;;;;19.09;52.10;96944.56;6002603;23;20267;-81
2023/07/05 07:41:54;;;;;;;3.90;2.60;;;;;;;18.66;50.61;96934.53;6001337;23;20011;-79
2023/07/05 07:44:19;;;;;;;3.85;2.50;;;;;;;18.97;50.95;96944.34;5969138;23;20000;-81
2023/07/05 07:46:45;;;;;;;3.60;2.30;;;;;;;18.98;52.64;96948.53;5990188;23;20095;-82
2023/07/05 07:49:10;;;;;;;4.25;2.40;;;;;;;18.70;56.11;96949.47;6016806;23;20146;-80
2023/07/05 07:51:38;;;;;;;3.47;2.20;;;;;;;18.83;52.33;96950.50;6026965;23;20012;-81
2023/07/05 07:54:04;;;;;;;4.18;2.42;;;;;;;18.50;54.01;96940.19;6000999;23;20003;-79
2023/07/05 07:56:30;;;;;;;3.88;2.55;;;;;;;18.80;53.74;96953.72;5990084;23;20319;-82
2023/07/05 07:58:58;;;;;;;2.97;1.90;;;;;;;18.84;55.82;96959.97;5958954;23;20153;-83
2023/07/05 08:01:32;;;;;;;3.38;2.22;;;;;;;19.31;47.08;96958.75;6008603;23;20200;-81
2023/07/05 08:04:00;;;;;;;2.80;2.20;;;;;;;19.56;47.78;96965.19;5983823;23;20350;-81
2023/07/05 08:06:34;;;;;;;3.00;2.08;;;;;;;19.76;47.17;96962.00;5979033;23;20351;-83
2023/07/05 08:09:00;;;;;;;4.82;2.55;;;;;;;19.53;46.79;96958.66;6004418;23;20146;-80
2023/07/05 08:11:25;;;;;;;4.63;2.15;;;;;;;19.73;48.03;96961.81;6042302;23;20392;-80
2023/07/05 08:13:50;;;;;;;3.50;2.33;;;;;;;19.92;48.80;96967.59;6007780;23;20312;-82
2023/07/05 08:16:17;;;;;;;2.75;1.95;;;;;;;19.69;49.44;96980.16;5961068;23;20144;-82
2023/07/05 08:18:46;;;;;;;4.47;2.45;;;;;;;19.76;50.78;96974.44;6037685;23;20007;-82
2023/07/05 08:21:14;;;;;;;4.25;2.20;;;;;;;19.87;49.87;96978.31;6035774;23;20231;-81
2023/07/05 08:23:43;;;;;;;4.53;2.70;;;;;;;19.91;49.16;96974.00;6008648;23;20240;-81
2023/07/05 08:26:09;;;;;;;3.58;1.88;;;;;;;20.26;47.08;96975.84;6017958;23;20274;-81
2023/07/05 08:28:35;;;;;;;2.80;2.03;;;;;;;20.55;46.40;96977.84;6016946;23;20125;-82
2023/07/05 08:31:02;;;;;;;3.40;2.10;;;;;;;20.42;49.53;96981.44;5957984;23;20170;-80
2023/07/05 08:33:28;;;;;;;2.78;1.85;;;;;;;20.51;49.75;96982.19;6008036;23;20452;-80
2023/07/05 08:36:09;;;;;;;4.57;2.35;;;;;;;20.67;48.86;96993.88;6032082;23;20397;-80
2023/07/05 08:38:38;;;;;;;3.25;2.10;;;;;;;20.61;44.58;96989.03;6009150;23;20032;-80
2023/07/05 08:41:45;;;;;;;3.33;2.17;;;;;;;20.89;45.62;97005.38;5994768;23;20181;-82
2023/07/05 08:44:24;;;;;;;2.70;1.80;;;;;;;20.43;44.75;96998.88;5913215;23;20315;-81
2023/07/05 08:46:56;;;;;;;4.22;2.38;;;;;;;20.49;45.91;97016.88;5961388;23;20115;-80
2023/07/05 08:49:24;;;;;;;2.47;1.85;;;;;;;20.46;44.22;97009.59;6008866;23;20170;-80
2023/07/05 08:51:50;;;;;;;2.97;1.70;;;;;;;20.81;46.04;97019.38;5994244;23;20146;-82
2023/07/05 08:54:16;;;;;;;3.17;1.70;;;;;;;20.87;45.40;97021.56;5992625;23;20326;-80
2023/07/05 08:56:53;;;;;;;2.22;2.03;;;;;;;21.29;43.89;97021.72;5962812;23;20223;-80
2023/07/05 08:59:27;;;;;;;3.65;2.10;;;;;;;21.44;44.01;97024.94;6008045;23;20059;-80
2023/07/05 09:01:55;;;;;;;2.55;1.90;;;;;;;21.46;41.74;97028.84;6008651;23;20039;-81
2023/07/05 09:04:23;;;;;;;3.88;2.05;;;;;;;21.88;41.38;97021.00;6007952;23;20193;-81
2023/07/05 09:07:00;;;;;;;2.85;1.52;;;;;;;22.19;44.50;97029.66;6017717;23;20324;-79
2023/07/05 09:09:40;;;;;;;3.53;1.75;;;;;;;22.55;43.14;97023.81;6008633;23;20382;-81
2023/07/05 09:12:06;;;;;;;1.98;1.77;;;;;;;22.55;40.31;97044.22;6005455;23;20257;-78
2023/07/05 09:14:54;;;;;;;3.53;1.92;;;;;;;22.82;40.76;97029.63;5909847;23;20257;-81
2023/07/05 09:17:51;;;;;;;2.10;1.83;;;;;;;23.29;39.53;97037.28;5958157;23;20401;-81
2023/07/05 09:20:31;;;;;;;3.03;2.10;;;;;;;23.14;41.34;97028.06;5960038;23;20137;-83
2023/07/05 09:22:59;;;;;;;2.33;1.90;;;;;;;22.76;40.27;97033.59;5909996;23;20312;-81
2023/07/05 09:25:25;;;;;;;2.47;1.90;;;;;;;22.80;38.85;97031.84;5958554;23;20340;-82
2023/07/05 09:27:58;;;;;;;3.60;1.63;;;;;;;22.92;39.01;97044.38;6017421;23;20311;-81
2023/07/05 09:30:25;;;;;;;2.38;1.95;;;;;;;22.53;38.64;97052.50;6006650;23;20441;-81
2023/07/05 09:33:10;;;;;;;2.50;1.92;;;;;;;22.15;43.41;97047.31;6006634;23;20256;-81
2023/07/05 09:35:36;;;;;;;2.38;1.60;;;;;;;22.15;38.75;97071.19;6005917;23;20384;-81
2023/07/05 09:38:01;;;;;;;2.38;1.63;;;;;;;21.89;40.30;97064.19;6029399;23;20059;-82
2023/07/05 09:40:41;;;;;;;3.42;1.60;;;;;;;21.74;40.71;97072.69;6005736;23;20201;-81
2023/07/05 09:43:20;;;;;;;2.05;1.40;;;;;;;21.70;42.10;97069.88;5988202;23;20168;-80
2023/07/05 09:45:45;;;;;;;1.98;1.45;;;;;;;21.64;40.70;97076.44;5993945;23;20161;-81
2023/07/05 09:48:12;;;;;;;5.00;1.70;;;;;;;21.84;40.02;97090.88;5989385;23;20177;-81
2023/07/05 09:50:41;;;;;;;2.38;1.42;;;;;;;22.11;38.15;97089.63;6008866;23;20240;-80
2023/07/05 09:53:32;;;;;;;2.53;1.55;;;;;;;22.60;40.71;97099.75;6011608;23;20334;-82
2023/07/05 09:56:05;;;;;;;1.67;1.20;;;;;;;22.87;37.43;97087.81;6037790;23;20341;-81
2023/07/05 09:58:32;;;;;;;2.22;1.80;;;;;;;22.94;41.17;97084.63;5956704;23;20188;-81
2023/07/05 10:01:04;;;;;;;2.08;1.33;;;;;;;23.29;38.57;97092.31;6030662;23;20162;-82
2023/07/05 10:03:44;;;;;;;1.70;1.30;;;;;;;23.48;36.53;97083.81;6032392;23;20302;-81
2023/07/05 10:06:10;;;;;;;2.25;1.40;;;;;;;23.71;38.54;97079.59;6013681;23;20296;-80
2023/07/05 10:08:50;;;;;;;2.53;1.40;;;;;;;23.95;34.59;97078.06;6003654;23;20354;-81
2023/07/05 10:11:23;;;;;;;2.60;1.55;;;;;;;24.03;38.07;97092.34;6025708;23;20375;-81
2023/07/05 10:14:02;;;;;;;2.95;1.42;;;;;;;24.27;38.33;97086.22;6029501;23;20531;-80
2023/07/05 10:16:42;;;;;;;2.45;1.73;;;;;;;24.57;37.86;97091.25;6025589;23;20275;-81
2023/07/05 10:19:24;;;;;;;3.25;1.55;;;;;;;24.05;37.79;97098.88;6037777;23;20368;-81
2023/07/05 10:22:14;;;;;;;2.65;1.80;;;;;;;23.99;36.43;97100.22;6035442;23;20335;-81
2023/07/05 10:24:50;;;;;;;1.80;1.65;;;;;;;23.78;35.69;97097.63;5904370;23;20177;-79
2023/07/05 10:27:28;;;;;;;1.88;1.52;;;;;;;23.95;35.90;97098.56;6011448;23;20161;-82
2023/07/05 10:30:14;;;;;;;2.42;1.58;;;;;;;24.02;34.78;97096.13;6036285;23;20228;-81
2023/07/05 10:32:40;;;;;;;1.65;1.52;;;;;;;23.82;35.57;97095.13;6010874;23;20263;-81
2023/07/05 10:35:26;;;;;;;2.97;1.63;;;;;;;23.60;36.43;97101.63;5978200;23;20316;-81
2023/07/05 10:37:53;;;;;;;2.08;1.58;;;;;;;23.31;36.47;97096.16;6036051;23;20165;-80
2023/07/05 10:40:20;;;;;;;3.13;1.77;;;;;;;23.26;36.90;97092.94;6012683;23;20242;-80
2023/07/05 10:42:50;;;;;;;1.92;1.50;;;;;;;23.13;37.76;97106.22;6034446;23;20044;-80
2023/07/05 10:45:18;;;;;;;4.18;1.85;;;;;;;23.15;38.73;97104.00;6035345;23;20188;-81
2023/07/05 10:47:52;;;;;;;2.65;1.58;;;;;;;23.51;35.39;97099.84;6031555;23;20098;-80
2023/07/05 10:50:30;;;;;;;2.42;1.75;;;;;;;23.92;35.18;97102.66;5984058;23;20122;-80
2023/07/05 10:53:01;;;;;;;3.42;2.00;;;;;;;23.68;34.17;97093.56;6003893;23;20260;-78
2023/07/05 10:55:38;;;;;;;2.22;1.65;;;;;;;24.07;32.95;97094.00;5916509;23;20138;-80
2023/07/05 10:58:10;;;;;;;2.25;1.50;;;;;;;24.43;33.35;97087.06;6011351;23;20330;-80
2023/07/05 11:00:39;;;;;;;2.47;1.40;;;;;;;24.71;36.70;97085.56;6012885;23;20356;-81
2023/07/05 11:03:09;;;;;;;2.55;1.60;;;;;;;24.70;31.04;97097.34;5957902;23;20328;-79
2023/07/05 11:05:42;;;;;;;4.00;1.83;;;;;;;24.66;33.47;97110.53;6005250;23;20245;-79
2023/07/05 11:08:20;;;;;;;2.60;2.40;;;;;;;24.67;32.93;97096.09;5979032;23;20312;-81
2023/07/05 11:10:48;;;;;;;2.00;1.60;;;;;;;25.01;33.57;97093.97;5989786;23;20326;-81
2023/07/05 11:13:15;;;;;;;3.13;1.50;;;;;;;25.27;35.89;97106.84;5955665;23;20189;-79
2023/07/05 11:15:41;;;;;;;2.22;1.50;;;;;;;24.52;33.40;97105.53;5988681;23;20253;-82
2023/07/05 11:18:12;;;;;;;2.10;1.90;;;;;;;24.14;33.56;97117.38;6001744;23;20382;-82
2023/07/05 11:20:39;;;;;;;2.63;1.60;;;;;;;23.71;39.62;97124.78;6003039;23;20158;-81
2023/07/05 11:23:09;;;;;;;2.20;1.40;;;;;;;23.62;34.13;97118.03;5916491;23;20292;-80
2023/07/05 11:25:53;;;;;;;1.95;1.60;;;;;;;23.82;34.51;97124.38;6013092;23;20180;-81
2023/07/05 11:28:39;;;;;;;2.40;1.50;;;;;;;23.90;34.17;97116.28;6035869;23;20248;-80
2023/07/05 11:31:24;;;;;;;2.25;1.63;;;;;;;23.79;35.83;97120.47;6035550;23;20249;-79
2023/07/05 11:34:23;;;;;;;3.42;2.38;;;;;;;24.00;33.41;97115.06;6035621;23;20294;-81
2023/07/05 11:36:51;;;;;;;4.78;2.00;;;;;;;23.90;33.77;97112.84;5916559;23;20304;-80
2023/07/05 11:39:51;;;;;;;3.70;1.75;;;;;;;24.14;35.17;97114.72;6003430;23;20236;-81
2023/07/05 11:42:20;;;;;;;2.28;1.83;;;;;;;24.04;34.85;97120.50;6003584;23;20321;-80
2023/07/05 11:44:46;;;;;;;2.30;1.40;;;;;;;23.91;35.77;97117.84;6002986;23;20244;-82
2023/07/05 11:47:24;;;;;;;3.05;1.75;;;;;;;23.92;35.14;97110.63;6003217;23;20184;-81
2023/07/05 11:50:06;;;;;;;2.40;1.52;;;;;;;23.92;33.75;97110.63;6003736;23;20359;-82
2023/07/05 11:52:33;;;;;;;3.80;1.88;;;;;;;23.68;33.14;97114.81;5917381;23;20566;-80
2023/07/05 11:55:19;;;;;;;2.80;1.70;;;;;;;23.65;32.76;97115.47;6006085;23;20166;-80
2023/07/05 11:58:00;;;;;;;2.42;1.52;;;;;;;23.57;37.31;97113.69;5958127;23;20078;-81